sensor_id;sensor_type;location;lat;lon;timestamp;P1;durP1;ratioP1;P2;durP2;ratioP2
38879;SDS011;25887;30.194;-97.880;2023-05-10T00:01:27;2.42;;;1.55;;
38879;SDS011;25887;30.194;-97.880;2023-05-10T00:03:53;3.17;;;1.80;;
38879;SDS011;25887;30.194;-97.880;2023-05-10T00:06:19;3.60;;;1.52;;
38879;SDS011;25887;30.194;-97.880;2023-05-10T00:08:56;2.60;;;1.45;;
38879;SDS011;25887;30.194;-97.880;2023-05-10T00:11:23;2.17;;;1.42;;
38879;SDS011;25887;30.194;-97.880;2023-05-10T00:13:49;2.75;;;1.50;;
38879;SDS011;25887;30.194;-97.880;2023-05-10T00:16:15;7.90;;;1.55;;
38879;SDS011;25887;30.194;-97.880;2023-05-10T00:18:42;2.80;;;1.40;;
38879;SDS011;25887;30.194;-97.880;2023-05-10T00:21:08;1.75;;;1.20;;
38879;SDS011;25887;30.194;-97.880;2023-05-10T00:23:34;2.05;;;1.30;;
38879;SDS011;25887;30.194;-97.880;2023-05-10T00:26:00;3.10;;;1.55;;
38879;SDS011;25887;30.194;-97.880;2023-05-10T00:28:27;1.70;;;1.30;;
38879;SDS011;25887;30.194;-97.880;2023-05-10T00:30:54;1.83;;;1.30;;
38879;SDS011;25887;30.194;-97.880;2023-05-10T00:33:21;3.08;;;2.03;;
38879;SDS011;25887;30.194;-97.880;2023-05-10T00:35:48;3.08;;;1.63;;
38879;SDS011;25887;30.194;-97.880;2023-05-10T00:38:14;1.38;;;1.25;;
38879;SDS011;25887;30.194;-97.880;2023-05-10T00:40:40;1.88;;;1.40;;
38879;SDS011;25887;30.194;-97.880;2023-05-10T00:43:07;2.20;;;1.50;;
38879;SDS011;25887;30.194;-97.880;2023-05-10T00:45:34;1.48;;;1.30;;
38879;SDS011;25887;30.194;-97.880;2023-05-10T00:48:04;4.97;;;1.40;;
38879;SDS011;25887;30.194;-97.880;2023-05-10T00:50:31;2.25;;;1.20;;
38879;SDS011;25887;30.194;-97.880;2023-05-10T00:52:59;2.17;;;1.45;;
38879;SDS011;25887;30.194;-97.880;2023-05-10T00:55:26;3.28;;;1.73;;
38879;SDS011;25887;30.194;-97.880;2023-05-10T00:57:53;3.65;;;1.38;;
38879;SDS011;25887;30.194;-97.880;2023-05-10T01:00:19;2.65;;;1.30;;
38879;SDS011;25887;30.194;-97.880;2023-05-10T01:02:46;2.38;;;1.38;;
38879;SDS011;25887;30.194;-97.880;2023-05-10T01:05:12;3.22;;;1.40;;
38879;SDS011;25887;30.194;-97.880;2023-05-10T01:07:39;3.60;;;1.48;;
38879;SDS011;25887;30.194;-97.880;2023-05-10T01:10:06;3.28;;;1.50;;
38879;SDS011;25887;30.194;-97.880;2023-05-10T01:18:43;2.63;;;1.45;;
38879;SDS011;25887;30.194;-97.880;2023-05-10T01:27:40;1.42;;;1.20;;
38879;SDS011;25887;30.194;-97.880;2023-05-10T01:39:17;2.50;;;1.67;;
38879;SDS011;25887;30.194;-97.880;2023-05-10T01:42:25;4.45;;;1.60;;
38879;SDS011;25887;30.194;-97.880;2023-05-10T01:44:58;2.38;;;1.63;;
38879;SDS011;25887;30.194;-97.880;2023-05-10T01:47:46;2.13;;;1.60;;
38879;SDS011;25887;30.194;-97.880;2023-05-10T01:50:18;4.97;;;2.00;;
38879;SDS011;25887;30.194;-97.880;2023-05-10T01:52:50;2.28;;;1.50;;
38879;SDS011;25887;30.194;-97.880;2023-05-10T01:55:20;2.53;;;1.60;;
38879;SDS011;25887;30.194;-97.880;2023-05-10T01:57:50;4.00;;;1.85;;
38879;SDS011;25887;30.194;-97.880;2023-05-10T02:00:21;1.90;;;1.55;;
38879;SDS011;25887;30.194;-97.880;2023-05-10T02:02:49;3.90;;;1.65;;
38879;SDS011;25887;30.194;-97.880;2023-05-10T02:05:17;4.03;;;1.80;;
38879;SDS011;25887;30.194;-97.880;2023-05-10T02:07:45;8.60;;;1.98;;
38879;SDS011;25887;30.194;-97.880;2023-05-10T02:10:13;2.88;;;1.80;;
38879;SDS011;25887;30.194;-97.880;2023-05-10T02:12:41;2.20;;;1.73;;
38879;SDS011;25887;30.194;-97.880;2023-05-10T02:15:11;2.45;;;1.50;;
38879;SDS011;25887;30.194;-97.880;2023-05-10T02:17:40;2.83;;;1.70;;
38879;SDS011;25887;30.194;-97.880;2023-05-10T02:20:08;4.00;;;1.73;;
38879;SDS011;25887;30.194;-97.880;2023-05-10T02:22:37;3.97;;;1.73;;
38879;SDS011;25887;30.194;-97.880;2023-05-10T02:25:05;4.63;;;2.00;;
38879;SDS011;25887;30.194;-97.880;2023-05-10T02:27:34;3.10;;;1.83;;
38879;SDS011;25887;30.194;-97.880;2023-05-10T02:30:02;4.10;;;1.80;;
38879;SDS011;25887;30.194;-97.880;2023-05-10T02:32:30;4.65;;;2.17;;
38879;SDS011;25887;30.194;-97.880;2023-05-10T02:34:56;3.95;;;2.05;;
38879;SDS011;25887;30.194;-97.880;2023-05-10T02:37:25;5.85;;;2.15;;
38879;SDS011;25887;30.194;-97.880;2023-05-10T02:39:53;3.65;;;2.17;;
38879;SDS011;25887;30.194;-97.880;2023-05-10T02:42:25;3.28;;;1.95;;
38879;SDS011;25887;30.194;-97.880;2023-05-10T02:44:53;2.97;;;1.80;;
38879;SDS011;25887;30.194;-97.880;2023-05-10T02:47:31;2.80;;;2.03;;
38879;SDS011;25887;30.194;-97.880;2023-05-10T02:49:57;2.80;;;1.70;;
38879;SDS011;25887;30.194;-97.880;2023-05-10T02:52:28;3.20;;;1.85;;
38879;SDS011;25887;30.194;-97.880;2023-05-10T02:55:01;3.35;;;2.00;;
38879;SDS011;25887;30.194;-97.880;2023-05-10T02:57:32;2.58;;;1.98;;
38879;SDS011;25887;30.194;-97.880;2023-05-10T03:00:06;3.17;;;2.13;;
38879;SDS011;25887;30.194;-97.880;2023-05-10T03:02:33;3.03;;;2.25;;
38879;SDS011;25887;30.194;-97.880;2023-05-10T03:05:01;2.42;;;1.83;;
38879;SDS011;25887;30.194;-97.880;2023-05-10T03:07:28;3.65;;;1.98;;
38879;SDS011;25887;30.194;-97.880;2023-05-10T03:09:55;4.68;;;1.85;;
38879;SDS011;25887;30.194;-97.880;2023-05-10T03:21:03;3.58;;;2.15;;
38879;SDS011;25887;30.194;-97.880;2023-05-10T03:23:43;4.00;;;2.33;;
38879;SDS011;25887;30.194;-97.880;2023-05-10T03:26:15;3.08;;;2.17;;
38879;SDS011;25887;30.194;-97.880;2023-05-10T03:28:45;5.53;;;2.33;;
38879;SDS011;25887;30.194;-97.880;2023-05-10T03:31:13;3.58;;;2.20;;
38879;SDS011;25887;30.194;-97.880;2023-05-10T03:33:47;8.48;;;2.20;;
38879;SDS011;25887;30.194;-97.880;2023-05-10T03:36:14;4.67;;;2.83;;
38879;SDS011;25887;30.194;-97.880;2023-05-10T03:38:40;6.63;;;2.90;;
38879;SDS011;25887;30.194;-97.880;2023-05-10T03:41:06;5.82;;;2.78;;
38879;SDS011;25887;30.194;-97.880;2023-05-10T03:43:32;6.97;;;2.67;;
38879;SDS011;25887;30.194;-97.880;2023-05-10T03:46:01;5.53;;;3.20;;
38879;SDS011;25887;30.194;-97.880;2023-05-10T03:48:28;4.88;;;2.88;;
38879;SDS011;25887;30.194;-97.880;2023-05-10T03:50:54;4.88;;;2.35;;
38879;SDS011;25887;30.194;-97.880;2023-05-10T03:53:21;4.72;;;2.70;;
38879;SDS011;25887;30.194;-97.880;2023-05-10T03:55:48;7.38;;;3.17;;
38879;SDS011;25887;30.194;-97.880;2023-05-10T03:58:14;5.05;;;3.03;;
38879;SDS011;25887;30.194;-97.880;2023-05-10T04:00:40;4.43;;;2.88;;
38879;SDS011;25887;30.194;-97.880;2023-05-10T04:03:09;5.07;;;2.72;;
38879;SDS011;25887;30.194;-97.880;2023-05-10T04:05:35;4.28;;;2.53;;
38879;SDS011;25887;30.194;-97.880;2023-05-10T04:08:02;8.82;;;3.65;;
38879;SDS011;25887;30.194;-97.880;2023-05-10T04:10:29;9.00;;;4.10;;
38879;SDS011;25887;30.194;-97.880;2023-05-10T04:12:55;7.80;;;3.90;;
38879;SDS011;25887;30.194;-97.880;2023-05-10T04:15:21;6.72;;;4.10;;
38879;SDS011;25887;30.194;-97.880;2023-05-10T04:17:47;7.97;;;3.80;;
38879;SDS011;25887;30.194;-97.880;2023-05-10T04:20:14;8.80;;;3.90;;
38879;SDS011;25887;30.194;-97.880;2023-05-10T04:22:40;7.43;;;3.92;;
38879;SDS011;25887;30.194;-97.880;2023-05-10T04:25:06;10.65;;;4.38;;
38879;SDS011;25887;30.194;-97.880;2023-05-10T04:27:33;11.05;;;4.90;;
38879;SDS011;25887;30.194;-97.880;2023-05-10T04:29:59;14.68;;;5.45;;
38879;SDS011;25887;30.194;-97.880;2023-05-10T04:32:26;11.68;;;5.25;;
38879;SDS011;25887;30.194;-97.880;2023-05-10T04:34:53;12.18;;;4.97;;
38879;SDS011;25887;30.194;-97.880;2023-05-10T04:37:19;10.35;;;4.80;;
38879;SDS011;25887;30.194;-97.880;2023-05-10T04:39:46;12.50;;;5.13;;
38879;SDS011;25887;30.194;-97.880;2023-05-10T04:45:34;10.57;;;5.00;;
38879;SDS011;25887;30.194;-97.880;2023-05-10T04:48:00;11.25;;;5.43;;
38879;SDS011;25887;30.194;-97.880;2023-05-10T04:50:26;10.75;;;5.45;;
38879;SDS011;25887;30.194;-97.880;2023-05-10T04:52:52;12.85;;;5.60;;
38879;SDS011;25887;30.194;-97.880;2023-05-10T04:55:19;14.27;;;5.65;;
38879;SDS011;25887;30.194;-97.880;2023-05-10T04:57:45;10.68;;;5.88;;
38879;SDS011;25887;30.194;-97.880;2023-05-10T05:00:11;13.68;;;5.60;;
38879;SDS011;25887;30.194;-97.880;2023-05-10T05:02:38;12.32;;;5.28;;
38879;SDS011;25887;30.194;-97.880;2023-05-10T05:05:07;13.63;;;5.95;;
38879;SDS011;25887;30.194;-97.880;2023-05-10T05:07:33;12.23;;;5.95;;
38879;SDS011;25887;30.194;-97.880;2023-05-10T05:10:00;11.30;;;6.22;;
38879;SDS011;25887;30.194;-97.880;2023-05-10T05:12:26;13.02;;;6.40;;
38879;SDS011;25887;30.194;-97.880;2023-05-10T05:14:52;12.73;;;6.00;;
38879;SDS011;25887;30.194;-97.880;2023-05-10T05:17:18;13.30;;;6.13;;
38879;SDS011;25887;30.194;-97.880;2023-05-10T05:19:44;12.55;;;6.45;;
38879;SDS011;25887;30.194;-97.880;2023-05-10T05:22:11;13.23;;;6.40;;
38879;SDS011;25887;30.194;-97.880;2023-05-10T05:24:37;12.43;;;6.20;;
38879;SDS011;25887;30.194;-97.880;2023-05-10T05:27:03;16.98;;;6.63;;
38879;SDS011;25887;30.194;-97.880;2023-05-10T05:29:30;11.60;;;6.18;;
38879;SDS011;25887;30.194;-97.880;2023-05-10T05:31:56;15.30;;;6.10;;
38879;SDS011;25887;30.194;-97.880;2023-05-10T05:34:22;12.75;;;6.05;;
38879;SDS011;25887;30.194;-97.880;2023-05-10T05:36:51;13.20;;;5.88;;
38879;SDS011;25887;30.194;-97.880;2023-05-10T05:39:17;13.13;;;5.43;;
38879;SDS011;25887;30.194;-97.880;2023-05-10T05:41:43;13.43;;;5.75;;
38879;SDS011;25887;30.194;-97.880;2023-05-10T05:44:09;7.45;;;4.50;;
38879;SDS011;25887;30.194;-97.880;2023-05-10T05:46:35;11.10;;;6.05;;
38879;SDS011;25887;30.194;-97.880;2023-05-10T05:49:01;11.45;;;4.60;;
38879;SDS011;25887;30.194;-97.880;2023-05-10T05:51:28;7.47;;;4.63;;
38879;SDS011;25887;30.194;-97.880;2023-05-10T05:53:54;9.05;;;4.65;;
38879;SDS011;25887;30.194;-97.880;2023-05-10T05:56:20;13.18;;;4.75;;
38879;SDS011;25887;30.194;-97.880;2023-05-10T05:58:50;11.00;;;4.53;;
38879;SDS011;25887;30.194;-97.880;2023-05-10T06:01:16;10.45;;;4.07;;
38879;SDS011;25887;30.194;-97.880;2023-05-10T06:03:44;8.85;;;3.88;;
38879;SDS011;25887;30.194;-97.880;2023-05-10T06:06:10;8.45;;;3.90;;
38879;SDS011;25887;30.194;-97.880;2023-05-10T06:08:36;9.40;;;3.55;;
38879;SDS011;25887;30.194;-97.880;2023-05-10T06:11:02;6.38;;;3.10;;
38879;SDS011;25887;30.194;-97.880;2023-05-10T06:13:30;7.07;;;3.55;;
38879;SDS011;25887;30.194;-97.880;2023-05-10T06:15:58;5.72;;;3.40;;
38879;SDS011;25887;30.194;-97.880;2023-05-10T06:18:24;8.70;;;3.90;;
38879;SDS011;25887;30.194;-97.880;2023-05-10T06:20:50;7.63;;;3.85;;
38879;SDS011;25887;30.194;-97.880;2023-05-10T06:23:17;5.47;;;3.63;;
38879;SDS011;25887;30.194;-97.880;2023-05-10T06:25:43;6.75;;;3.85;;
38879;SDS011;25887;30.194;-97.880;2023-05-10T06:28:09;7.65;;;3.55;;
38879;SDS011;25887;30.194;-97.880;2023-05-10T06:30:35;7.75;;;3.55;;
38879;SDS011;25887;30.194;-97.880;2023-05-10T06:33:02;6.30;;;3.50;;
38879;SDS011;25887;30.194;-97.880;2023-05-10T06:35:28;9.13;;;3.60;;
38879;SDS011;25887;30.194;-97.880;2023-05-10T06:37:54;7.57;;;3.95;;
38879;SDS011;25887;30.194;-97.880;2023-05-10T06:40:21;7.78;;;3.95;;
38879;SDS011;25887;30.194;-97.880;2023-05-10T06:42:48;8.18;;;3.88;;
38879;SDS011;25887;30.194;-97.880;2023-05-10T06:45:14;8.65;;;4.10;;
38879;SDS011;25887;30.194;-97.880;2023-05-10T06:47:41;9.50;;;4.22;;
38879;SDS011;25887;30.194;-97.880;2023-05-10T06:50:08;11.85;;;4.45;;
38879;SDS011;25887;30.194;-97.880;2023-05-10T06:52:35;6.03;;;4.05;;
38879;SDS011;25887;30.194;-97.880;2023-05-10T06:55:01;6.32;;;3.80;;
38879;SDS011;25887;30.194;-97.880;2023-05-10T06:57:30;8.63;;;3.83;;
38879;SDS011;25887;30.194;-97.880;2023-05-10T06:59:57;10.57;;;3.75;;
38879;SDS011;25887;30.194;-97.880;2023-05-10T07:02:24;8.02;;;3.63;;
38879;SDS011;25887;30.194;-97.880;2023-05-10T07:04:50;5.65;;;3.63;;
38879;SDS011;25887;30.194;-97.880;2023-05-10T07:07:17;7.57;;;3.72;;
38879;SDS011;25887;30.194;-97.880;2023-05-10T07:09:43;7.90;;;3.63;;
38879;SDS011;25887;30.194;-97.880;2023-05-10T07:12:10;7.68;;;3.47;;
38879;SDS011;25887;30.194;-97.880;2023-05-10T07:14:36;6.15;;;3.42;;
38879;SDS011;25887;30.194;-97.880;2023-05-10T07:17:03;6.20;;;3.25;;
38879;SDS011;25887;30.194;-97.880;2023-05-10T07:19:29;5.93;;;3.10;;
38879;SDS011;25887;30.194;-97.880;2023-05-10T07:21:57;8.07;;;3.53;;
38879;SDS011;25887;30.194;-97.880;2023-05-10T07:24:24;5.45;;;3.33;;
38879;SDS011;25887;30.194;-97.880;2023-05-10T07:26:50;7.25;;;3.30;;
38879;SDS011;25887;30.194;-97.880;2023-05-10T07:29:16;5.38;;;2.92;;
38879;SDS011;25887;30.194;-97.880;2023-05-10T07:31:42;6.60;;;3.33;;
38879;SDS011;25887;30.194;-97.880;2023-05-10T07:34:08;7.57;;;3.22;;
38879;SDS011;25887;30.194;-97.880;2023-05-10T07:36:35;5.55;;;3.00;;
38879;SDS011;25887;30.194;-97.880;2023-05-10T07:39:01;6.72;;;3.17;;
38879;SDS011;25887;30.194;-97.880;2023-05-10T07:41:27;4.75;;;2.72;;
38879;SDS011;25887;30.194;-97.880;2023-05-10T07:43:54;7.85;;;2.97;;
38879;SDS011;25887;30.194;-97.880;2023-05-10T07:46:20;4.88;;;2.72;;
38879;SDS011;25887;30.194;-97.880;2023-05-10T07:48:46;8.23;;;3.20;;
38879;SDS011;25887;30.194;-97.880;2023-05-10T07:51:12;5.07;;;2.90;;
38879;SDS011;25887;30.194;-97.880;2023-05-10T07:53:40;5.43;;;3.25;;
38879;SDS011;25887;30.194;-97.880;2023-05-10T07:56:21;4.25;;;3.00;;
38879;SDS011;25887;30.194;-97.880;2023-05-10T07:58:59;5.50;;;3.00;;
38879;SDS011;25887;30.194;-97.880;2023-05-10T08:01:25;5.40;;;3.38;;
38879;SDS011;25887;30.194;-97.880;2023-05-10T08:03:52;6.28;;;2.80;;
38879;SDS011;25887;30.194;-97.880;2023-05-10T08:06:19;4.35;;;2.67;;
38879;SDS011;25887;30.194;-97.880;2023-05-10T08:08:46;3.78;;;2.42;;
38879;SDS011;25887;30.194;-97.880;2023-05-10T08:11:17;3.15;;;2.20;;
38879;SDS011;25887;30.194;-97.880;2023-05-10T08:13:44;4.82;;;2.38;;
38879;SDS011;25887;30.194;-97.880;2023-05-10T08:16:10;2.70;;;1.60;;
38879;SDS011;25887;30.194;-97.880;2023-05-10T08:18:37;2.25;;;1.73;;
38879;SDS011;25887;30.194;-97.880;2023-05-10T08:21:03;3.90;;;1.80;;
38879;SDS011;25887;30.194;-97.880;2023-05-10T08:23:30;3.13;;;1.98;;
38879;SDS011;25887;30.194;-97.880;2023-05-10T08:25:56;4.47;;;1.70;;
38879;SDS011;25887;30.194;-97.880;2023-05-10T08:28:23;2.65;;;1.73;;
38879;SDS011;25887;30.194;-97.880;2023-05-10T08:30:52;2.90;;;1.95;;
38879;SDS011;25887;30.194;-97.880;2023-05-10T08:33:18;2.75;;;1.67;;
38879;SDS011;25887;30.194;-97.880;2023-05-10T08:42:28;3.70;;;2.13;;
38879;SDS011;25887;30.194;-97.880;2023-05-10T08:44:58;3.63;;;2.17;;
38879;SDS011;25887;30.194;-97.880;2023-05-10T08:47:25;2.92;;;1.80;;
38879;SDS011;25887;30.194;-97.880;2023-05-10T08:52:41;2.65;;;2.00;;
38879;SDS011;25887;30.194;-97.880;2023-05-10T08:55:10;3.95;;;2.25;;
38879;SDS011;25887;30.194;-97.880;2023-05-10T08:57:37;3.28;;;2.15;;
38879;SDS011;25887;30.194;-97.880;2023-05-10T09:00:03;3.00;;;2.08;;
38879;SDS011;25887;30.194;-97.880;2023-05-10T09:02:30;4.25;;;2.20;;
38879;SDS011;25887;30.194;-97.880;2023-05-10T09:04:57;3.40;;;2.42;;
38879;SDS011;25887;30.194;-97.880;2023-05-10T09:07:23;6.20;;;2.20;;
38879;SDS011;25887;30.194;-97.880;2023-05-10T09:09:49;3.78;;;2.47;;
38879;SDS011;25887;30.194;-97.880;2023-05-10T09:12:16;4.38;;;2.20;;
38879;SDS011;25887;30.194;-97.880;2023-05-10T09:14:42;5.90;;;2.40;;
38879;SDS011;25887;30.194;-97.880;2023-05-10T09:17:11;4.78;;;2.47;;
38879;SDS011;25887;30.194;-97.880;2023-05-10T09:19:38;2.90;;;2.00;;
38879;SDS011;25887;30.194;-97.880;2023-05-10T09:22:04;4.82;;;2.67;;
38879;SDS011;25887;30.194;-97.880;2023-05-10T09:24:30;4.68;;;2.03;;
38879;SDS011;25887;30.194;-97.880;2023-05-10T09:26:57;3.50;;;2.22;;
38879;SDS011;25887;30.194;-97.880;2023-05-10T09:29:26;3.80;;;2.17;;
38879;SDS011;25887;30.194;-97.880;2023-05-10T09:32:04;4.53;;;2.75;;
38879;SDS011;25887;30.194;-97.880;2023-05-10T09:34:30;5.68;;;2.60;;
38879;SDS011;25887;30.194;-97.880;2023-05-10T09:37:05;5.05;;;2.67;;
38879;SDS011;25887;30.194;-97.880;2023-05-10T09:39:33;3.22;;;2.30;;
38879;SDS011;25887;30.194;-97.880;2023-05-10T09:42:02;4.45;;;2.55;;
38879;SDS011;25887;30.194;-97.880;2023-05-10T09:44:30;7.20;;;2.63;;
38879;SDS011;25887;30.194;-97.880;2023-05-10T09:46:57;4.47;;;2.70;;
38879;SDS011;25887;30.194;-97.880;2023-05-10T09:49:24;7.50;;;2.55;;
38879;SDS011;25887;30.194;-97.880;2023-05-10T09:51:59;4.45;;;2.58;;
38879;SDS011;25887;30.194;-97.880;2023-05-10T09:54:32;7.55;;;3.08;;
38879;SDS011;25887;30.194;-97.880;2023-05-10T09:57:01;4.20;;;2.53;;
38879;SDS011;25887;30.194;-97.880;2023-05-10T09:59:29;5.43;;;2.50;;
38879;SDS011;25887;30.194;-97.880;2023-05-10T10:01:56;5.28;;;2.40;;
38879;SDS011;25887;30.194;-97.880;2023-05-10T10:04:38;4.55;;;2.53;;
38879;SDS011;25887;30.194;-97.880;2023-05-10T10:07:06;4.80;;;2.78;;
38879;SDS011;25887;30.194;-97.880;2023-05-10T10:09:33;4.22;;;2.30;;
38879;SDS011;25887;30.194;-97.880;2023-05-10T10:12:01;4.70;;;2.95;;
38879;SDS011;25887;30.194;-97.880;2023-05-10T10:14:29;7.60;;;2.55;;
38879;SDS011;25887;30.194;-97.880;2023-05-10T10:16:55;3.40;;;2.08;;
38879;SDS011;25887;30.194;-97.880;2023-05-10T10:19:22;5.57;;;2.72;;
38879;SDS011;25887;30.194;-97.880;2023-05-10T10:21:49;3.30;;;2.25;;
38879;SDS011;25887;30.194;-97.880;2023-05-10T10:24:16;3.25;;;2.13;;
38879;SDS011;25887;30.194;-97.880;2023-05-10T10:26:42;3.15;;;2.30;;
38879;SDS011;25887;30.194;-97.880;2023-05-10T10:29:31;5.53;;;2.95;;
38879;SDS011;25887;30.194;-97.880;2023-05-10T10:34:38;3.70;;;2.40;;
38879;SDS011;25887;30.194;-97.880;2023-05-10T10:37:05;4.97;;;2.58;;
38879;SDS011;25887;30.194;-97.880;2023-05-10T10:39:32;4.18;;;2.50;;
38879;SDS011;25887;30.194;-97.880;2023-05-10T10:41:59;3.50;;;2.40;;
38879;SDS011;25887;30.194;-97.880;2023-05-10T10:53:11;4.60;;;2.50;;
38879;SDS011;25887;30.194;-97.880;2023-05-10T10:55:44;4.20;;;2.53;;
38879;SDS011;25887;30.194;-97.880;2023-05-10T10:58:28;3.33;;;2.22;;
38879;SDS011;25887;30.194;-97.880;2023-05-10T11:03:36;3.80;;;2.50;;
38879;SDS011;25887;30.194;-97.880;2023-05-10T11:06:02;4.88;;;2.45;;
38879;SDS011;25887;30.194;-97.880;2023-05-10T11:08:29;4.03;;;2.25;;
38879;SDS011;25887;30.194;-97.880;2023-05-10T11:16:17;4.07;;;2.40;;
38879;SDS011;25887;30.194;-97.880;2023-05-10T11:18:56;5.10;;;2.40;;
38879;SDS011;25887;30.194;-97.880;2023-05-10T11:21:31;6.53;;;2.40;;
38879;SDS011;25887;30.194;-97.880;2023-05-10T11:24:20;4.43;;;2.72;;
38879;SDS011;25887;30.194;-97.880;2023-05-10T11:26:51;4.85;;;2.60;;
38879;SDS011;25887;30.194;-97.880;2023-05-10T11:29:18;3.58;;;2.47;;
38879;SDS011;25887;30.194;-97.880;2023-05-10T11:31:45;6.05;;;2.50;;
38879;SDS011;25887;30.194;-97.880;2023-05-10T11:34:33;3.42;;;2.17;;
38879;SDS011;25887;30.194;-97.880;2023-05-10T11:36:59;3.63;;;2.22;;
38879;SDS011;25887;30.194;-97.880;2023-05-10T11:39:26;4.30;;;2.58;;
38879;SDS011;25887;30.194;-97.880;2023-05-10T11:41:53;4.00;;;2.58;;
38879;SDS011;25887;30.194;-97.880;2023-05-10T11:44:19;3.63;;;2.33;;
38879;SDS011;25887;30.194;-97.880;2023-05-10T11:46:46;4.57;;;2.72;;
38879;SDS011;25887;30.194;-97.880;2023-05-10T11:49:29;3.63;;;2.72;;
38879;SDS011;25887;30.194;-97.880;2023-05-10T11:52:08;4.82;;;3.10;;
38879;SDS011;25887;30.194;-97.880;2023-05-10T11:54:36;5.53;;;3.03;;
38879;SDS011;25887;30.194;-97.880;2023-05-10T11:57:08;11.43;;;3.25;;
38879;SDS011;25887;30.194;-97.880;2023-05-10T11:59:37;6.65;;;2.80;;
38879;SDS011;25887;30.194;-97.880;2023-05-10T12:02:03;7.50;;;3.83;;
38879;SDS011;25887;30.194;-97.880;2023-05-10T12:04:38;5.35;;;3.15;;
38879;SDS011;25887;30.194;-97.880;2023-05-10T12:07:05;8.52;;;4.25;;
38879;SDS011;25887;30.194;-97.880;2023-05-10T12:09:32;5.75;;;3.53;;
38879;SDS011;25887;30.194;-97.880;2023-05-10T12:11:58;6.07;;;3.53;;
38879;SDS011;25887;30.194;-97.880;2023-05-10T12:14:24;6.47;;;3.65;;
38879;SDS011;25887;30.194;-97.880;2023-05-10T12:16:58;6.68;;;3.55;;
38879;SDS011;25887;30.194;-97.880;2023-05-10T12:19:24;7.43;;;4.05;;
38879;SDS011;25887;30.194;-97.880;2023-05-10T12:21:50;7.25;;;3.85;;
38879;SDS011;25887;30.194;-97.880;2023-05-10T12:24:17;9.30;;;4.05;;
38879;SDS011;25887;30.194;-97.880;2023-05-10T12:26:47;6.95;;;3.88;;
38879;SDS011;25887;30.194;-97.880;2023-05-10T12:29:19;7.18;;;3.92;;
38879;SDS011;25887;30.194;-97.880;2023-05-10T12:31:49;7.55;;;3.78;;
38879;SDS011;25887;30.194;-97.880;2023-05-10T12:34:52;8.87;;;4.30;;
38879;SDS011;25887;30.194;-97.880;2023-05-10T12:37:12;7.18;;;3.28;;
38879;SDS011;25887;30.194;-97.880;2023-05-10T12:39:44;6.32;;;3.97;;
38879;SDS011;25887;30.194;-97.880;2023-05-10T12:42:11;8.98;;;4.18;;
38879;SDS011;25887;30.194;-97.880;2023-05-10T12:44:37;7.88;;;3.60;;
38879;SDS011;25887;30.194;-97.880;2023-05-10T12:47:04;6.63;;;3.42;;
38879;SDS011;25887;30.194;-97.880;2023-05-10T12:49:31;6.53;;;3.78;;
38879;SDS011;25887;30.194;-97.880;2023-05-10T12:51:57;8.55;;;3.75;;
38879;SDS011;25887;30.194;-97.880;2023-05-10T12:54:23;8.95;;;3.53;;
38879;SDS011;25887;30.194;-97.880;2023-05-10T12:56:49;7.55;;;3.53;;
38879;SDS011;25887;30.194;-97.880;2023-05-10T12:59:16;7.35;;;3.85;;
38879;SDS011;25887;30.194;-97.880;2023-05-10T13:01:42;8.68;;;3.85;;
38879;SDS011;25887;30.194;-97.880;2023-05-10T13:04:08;7.45;;;4.03;;
38879;SDS011;25887;30.194;-97.880;2023-05-10T13:06:43;8.10;;;4.05;;
38879;SDS011;25887;30.194;-97.880;2023-05-10T13:09:10;7.78;;;3.97;;
38879;SDS011;25887;30.194;-97.880;2023-05-10T13:11:36;6.03;;;3.35;;
38879;SDS011;25887;30.194;-97.880;2023-05-10T13:14:02;7.20;;;3.70;;
38879;SDS011;25887;30.194;-97.880;2023-05-10T13:16:28;4.95;;;3.00;;
38879;SDS011;25887;30.194;-97.880;2023-05-10T13:18:55;4.90;;;3.53;;
38879;SDS011;25887;30.194;-97.880;2023-05-10T13:21:21;10.88;;;3.72;;
38879;SDS011;25887;30.194;-97.880;2023-05-10T13:23:49;8.48;;;3.88;;
38879;SDS011;25887;30.194;-97.880;2023-05-10T13:26:15;6.53;;;3.70;;
38879;SDS011;25887;30.194;-97.880;2023-05-10T13:28:41;7.80;;;3.50;;
38879;SDS011;25887;30.194;-97.880;2023-05-10T13:31:08;8.88;;;3.58;;
38879;SDS011;25887;30.194;-97.880;2023-05-10T13:33:34;6.10;;;3.22;;
38879;SDS011;25887;30.194;-97.880;2023-05-10T13:36:01;4.50;;;2.92;;
38879;SDS011;25887;30.194;-97.880;2023-05-10T13:38:27;5.47;;;3.13;;
38879;SDS011;25887;30.194;-97.880;2023-05-10T13:40:53;6.32;;;3.58;;
38879;SDS011;25887;30.194;-97.880;2023-05-10T13:43:19;6.13;;;3.60;;
38879;SDS011;25887;30.194;-97.880;2023-05-10T13:45:46;6.70;;;3.35;;
38879;SDS011;25887;30.194;-97.880;2023-05-10T13:48:12;8.10;;;3.95;;
38879;SDS011;25887;30.194;-97.880;2023-05-10T13:50:38;6.47;;;3.90;;
38879;SDS011;25887;30.194;-97.880;2023-05-10T13:53:05;7.25;;;3.22;;
38879;SDS011;25887;30.194;-97.880;2023-05-10T13:55:31;7.10;;;3.63;;
38879;SDS011;25887;30.194;-97.880;2023-05-10T13:57:57;4.28;;;2.58;;
38879;SDS011;25887;30.194;-97.880;2023-05-10T14:00:24;4.65;;;2.70;;
38879;SDS011;25887;30.194;-97.880;2023-05-10T14:02:50;6.97;;;3.15;;
38879;SDS011;25887;30.194;-97.880;2023-05-10T14:05:16;6.68;;;2.78;;
38879;SDS011;25887;30.194;-97.880;2023-05-10T14:07:43;5.43;;;2.67;;
38879;SDS011;25887;30.194;-97.880;2023-05-10T14:10:09;5.05;;;3.10;;
38879;SDS011;25887;30.194;-97.880;2023-05-10T14:12:47;4.35;;;2.40;;
38879;SDS011;25887;30.194;-97.880;2023-05-10T14:15:13;5.28;;;2.67;;
38879;SDS011;25887;30.194;-97.880;2023-05-10T14:17:39;4.32;;;2.65;;
38879;SDS011;25887;30.194;-97.880;2023-05-10T14:20:06;4.55;;;2.60;;
38879;SDS011;25887;30.194;-97.880;2023-05-10T14:22:32;6.75;;;3.00;;
38879;SDS011;25887;30.194;-97.880;2023-05-10T14:24:58;4.35;;;2.22;;
38879;SDS011;25887;30.194;-97.880;2023-05-10T14:27:25;4.68;;;2.30;;
38879;SDS011;25887;30.194;-97.880;2023-05-10T14:29:51;5.30;;;2.50;;
38879;SDS011;25887;30.194;-97.880;2023-05-10T14:32:21;3.65;;;2.63;;
38879;SDS011;25887;30.194;-97.880;2023-05-10T14:34:54;3.35;;;2.05;;
38879;SDS011;25887;30.194;-97.880;2023-05-10T14:37:21;5.40;;;2.70;;
38879;SDS011;25887;30.194;-97.880;2023-05-10T14:39:53;4.80;;;2.50;;
38879;SDS011;25887;30.194;-97.880;2023-05-10T14:42:19;5.32;;;2.38;;
38879;SDS011;25887;30.194;-97.880;2023-05-10T14:44:45;4.22;;;2.25;;
38879;SDS011;25887;30.194;-97.880;2023-05-10T14:47:11;4.05;;;2.20;;
38879;SDS011;25887;30.194;-97.880;2023-05-10T14:49:38;3.83;;;2.28;;
38879;SDS011;25887;30.194;-97.880;2023-05-10T14:52:04;2.92;;;2.08;;
38879;SDS011;25887;30.194;-97.880;2023-05-10T14:54:30;4.05;;;2.33;;
38879;SDS011;25887;30.194;-97.880;2023-05-10T14:56:58;3.42;;;1.73;;
38879;SDS011;25887;30.194;-97.880;2023-05-10T14:59:25;3.80;;;2.40;;
38879;SDS011;25887;30.194;-97.880;2023-05-10T15:01:51;2.58;;;1.70;;
38879;SDS011;25887;30.194;-97.880;2023-05-10T15:04:18;7.80;;;2.92;;
38879;SDS011;25887;30.194;-97.880;2023-05-10T15:06:44;4.15;;;2.55;;
38879;SDS011;25887;30.194;-97.880;2023-05-10T15:09:10;5.20;;;2.90;;
38879;SDS011;25887;30.194;-97.880;2023-05-10T15:11:51;5.30;;;2.50;;
38879;SDS011;25887;30.194;-97.880;2023-05-10T15:14:17;3.38;;;2.15;;
38879;SDS011;25887;30.194;-97.880;2023-05-10T15:16:54;3.38;;;1.80;;
38879;SDS011;25887;30.194;-97.880;2023-05-10T15:19:21;4.65;;;2.20;;
38879;SDS011;25887;30.194;-97.880;2023-05-10T15:21:48;5.50;;;2.20;;
38879;SDS011;25887;30.194;-97.880;2023-05-10T15:24:17;2.55;;;1.92;;
38879;SDS011;25887;30.194;-97.880;2023-05-10T15:26:44;3.50;;;2.00;;
38879;SDS011;25887;30.194;-97.880;2023-05-10T15:29:10;3.15;;;2.28;;